sensor_id;sensor_type;location;lat;lon;timestamp;temperature;humidity
52509;DHT22;38420;53.150;6.370;2023-01-10T00:01:32;4.90;99.90
52509;DHT22;38420;53.150;6.370;2023-01-10T00:03:57;4.60;99.90
52509;DHT22;38420;53.150;6.370;2023-01-10T00:06:23;4.50;99.90
52509;DHT22;38420;53.150;6.370;2023-01-10T00:08:49;4.90;99.90
52509;DHT22;38420;53.150;6.370;2023-01-10T00:11:14;4.50;99.90
52509;DHT22;38420;53.150;6.370;2023-01-10T00:13:59;4.20;99.90
52509;DHT22;38420;53.150;6.370;2023-01-10T00:16:24;4.40;99.90
52509;DHT22;38420;53.150;6.370;2023-01-10T00:18:50;5.00;99.90
52509;DHT22;38420;53.150;6.370;2023-01-10T00:21:15;4.80;99.90
52509;DHT22;38420;53.150;6.370;2023-01-10T00:23:42;4.50;99.90
52509;DHT22;38420;53.150;6.370;2023-01-10T00:26:09;5.10;99.90
52509;DHT22;38420;53.150;6.370;2023-01-10T00:28:34;4.70;99.90
52509;DHT22;38420;53.150;6.370;2023-01-10T00:31:01;4.80;99.90
52509;DHT22;38420;53.150;6.370;2023-01-10T00:33:31;5.00;99.90
52509;DHT22;38420;53.150;6.370;2023-01-10T00:35:58;5.20;99.90
52509;DHT22;38420;53.150;6.370;2023-01-10T00:38:23;5.20;99.90
52509;DHT22;38420;53.150;6.370;2023-01-10T00:40:49;4.80;99.90
52509;DHT22;38420;53.150;6.370;2023-01-10T00:43:15;5.10;99.90
52509;DHT22;38420;53.150;6.370;2023-01-10T00:45:59;4.80;99.90
52509;DHT22;38420;53.150;6.370;2023-01-10T00:48:27;5.40;99.90
52509;DHT22;38420;53.150;6.370;2023-01-10T00:50:52;5.30;99.90
52509;DHT22;38420;53.150;6.370;2023-01-10T00:53:18;5.50;99.90
52509;DHT22;38420;53.150;6.370;2023-01-10T00:55:43;5.50;99.90
52509;DHT22;38420;53.150;6.370;2023-01-10T00:58:09;5.40;99.90
52509;DHT22;38420;53.150;6.370;2023-01-10T01:00:37;5.50;99.90
52509;DHT22;38420;53.150;6.370;2023-01-10T01:03:03;4.80;99.90
52509;DHT22;38420;53.150;6.370;2023-01-10T01:05:31;5.20;99.90
52509;DHT22;38420;53.150;6.370;2023-01-10T01:07:56;5.00;99.90
52509;DHT22;38420;53.150;6.370;2023-01-10T01:10:22;5.50;99.90
52509;DHT22;38420;53.150;6.370;2023-01-10T01:12:51;5.60;99.90
52509;DHT22;38420;53.150;6.370;2023-01-10T01:15:17;5.10;99.90
52509;DHT22;38420;53.150;6.370;2023-01-10T01:17:42;4.80;99.90
52509;DHT22;38420;53.150;6.370;2023-01-10T01:20:08;5.50;99.90
52509;DHT22;38420;53.150;6.370;2023-01-10T01:22:34;4.90;99.90
52509;DHT22;38420;53.150;6.370;2023-01-10T01:25:00;5.00;99.90
52509;DHT22;38420;53.150;6.370;2023-01-10T01:27:26;5.60;99.90
52509;DHT22;38420;53.150;6.370;2023-01-10T01:29:51;5.10;99.90
52509;DHT22;38420;53.150;6.370;2023-01-10T01:32:17;5.40;99.90
52509;DHT22;38420;53.150;6.370;2023-01-10T01:34:43;5.50;99.90
52509;DHT22;38420;53.150;6.370;2023-01-10T01:37:08;5.60;99.90
52509;DHT22;38420;53.150;6.370;2023-01-10T01:39:34;5.40;99.90
52509;DHT22;38420;53.150;6.370;2023-01-10T01:42:00;5.20;99.90
52509;DHT22;38420;53.150;6.370;2023-01-10T01:44:31;5.60;99.90
52509;DHT22;38420;53.150;6.370;2023-01-10T01:47:06;5.60;99.90
52509;DHT22;38420;53.150;6.370;2023-01-10T01:49:36;5.30;99.90
52509;DHT22;38420;53.150;6.370;2023-01-10T01:52:08;5.60;99.90
52509;DHT22;38420;53.150;6.370;2023-01-10T01:54:36;5.60;99.90
52509;DHT22;38420;53.150;6.370;2023-01-10T01:57:07;5.20;99.90
52509;DHT22;38420;53.150;6.370;2023-01-10T01:59:40;5.00;99.90
52509;DHT22;38420;53.150;6.370;2023-01-10T02:02:11;5.50;99.90
52509;DHT22;38420;53.150;6.370;2023-01-10T02:04:42;5.80;99.90
52509;DHT22;38420;53.150;6.370;2023-01-10T02:07:11;5.80;99.90
52509;DHT22;38420;53.150;6.370;2023-01-10T02:09:47;5.40;99.90
52509;DHT22;38420;53.150;6.370;2023-01-10T02:12:14;5.70;99.90
52509;DHT22;38420;53.150;6.370;2023-01-10T02:14:42;5.60;99.90
52509;DHT22;38420;53.150;6.370;2023-01-10T02:17:10;5.30;99.90
52509;DHT22;38420;53.150;6.370;2023-01-10T02:25:23;5.90;99.90
52509;DHT22;38420;53.150;6.370;2023-01-10T02:28:15;5.20;99.90
52509;DHT22;38420;53.150;6.370;2023-01-10T02:41:50;5.70;99.90
52509;DHT22;38420;53.150;6.370;2023-01-10T02:44:35;5.40;99.90
52509;DHT22;38420;53.150;6.370;2023-01-10T02:47:03;5.00;99.90
52509;DHT22;38420;53.150;6.370;2023-01-10T02:49:29;5.50;99.90
52509;DHT22;38420;53.150;6.370;2023-01-10T02:51:55;5.80;99.90
52509;DHT22;38420;53.150;6.370;2023-01-10T02:54:24;5.80;99.90
52509;DHT22;38420;53.150;6.370;2023-01-10T02:59:50;5.80;99.90
52509;DHT22;38420;53.150;6.370;2023-01-10T03:10:51;6.20;99.90
52509;DHT22;38420;53.150;6.370;2023-01-10T03:13:24;6.20;99.90
52509;DHT22;38420;53.150;6.370;2023-01-10T03:15:52;5.40;99.90
52509;DHT22;38420;53.150;6.370;2023-01-10T03:18:23;5.80;99.90
52509;DHT22;38420;53.150;6.370;2023-01-10T03:20:51;5.70;99.90
52509;DHT22;38420;53.150;6.370;2023-01-10T03:23:20;6.20;99.90
52509;DHT22;38420;53.150;6.370;2023-01-10T03:25:49;5.80;99.90
52509;DHT22;38420;53.150;6.370;2023-01-10T03:28:20;6.00;99.90
52509;DHT22;38420;53.150;6.370;2023-01-10T03:31:01;6.10;99.90
52509;DHT22;38420;53.150;6.370;2023-01-10T03:33:30;6.00;99.90
52509;DHT22;38420;53.150;6.370;2023-01-10T03:36:25;5.60;99.90
52509;DHT22;38420;53.150;6.370;2023-01-10T03:38:55;5.70;99.90
52509;DHT22;38420;53.150;6.370;2023-01-10T03:44:12;6.20;99.90
52509;DHT22;38420;53.150;6.370;2023-01-10T03:49:30;5.70;99.90
52509;DHT22;38420;53.150;6.370;2023-01-10T03:51:58;5.90;99.90
52509;DHT22;38420;53.150;6.370;2023-01-10T03:54:24;6.30;99.90
52509;DHT22;38420;53.150;6.370;2023-01-10T03:56:50;5.50;99.90
52509;DHT22;38420;53.150;6.370;2023-01-10T03:59:18;6.10;99.90
52509;DHT22;38420;53.150;6.370;2023-01-10T04:01:46;5.80;99.90
52509;DHT22;38420;53.150;6.370;2023-01-10T04:04:11;5.60;99.90
52509;DHT22;38420;53.150;6.370;2023-01-10T04:06:37;5.60;99.90
52509;DHT22;38420;53.150;6.370;2023-01-10T04:09:03;5.50;99.90
52509;DHT22;38420;53.150;6.370;2023-01-10T04:11:28;5.70;99.90
52509;DHT22;38420;53.150;6.370;2023-01-10T04:13:54;6.10;99.90
52509;DHT22;38420;53.150;6.370;2023-01-10T04:16:20;5.30;99.90
52509;DHT22;38420;53.150;6.370;2023-01-10T04:18:45;6.20;99.90
52509;DHT22;38420;53.150;6.370;2023-01-10T04:21:11;5.90;99.90
52509;DHT22;38420;53.150;6.370;2023-01-10T04:23:36;5.60;99.90
52509;DHT22;38420;53.150;6.370;2023-01-10T04:26:02;5.40;99.90
52509;DHT22;38420;53.150;6.370;2023-01-10T04:28:28;6.10;99.90
52509;DHT22;38420;53.150;6.370;2023-01-10T04:30:53;6.10;99.90
52509;DHT22;38420;53.150;6.370;2023-01-10T04:33:19;5.30;99.90
52509;DHT22;38420;53.150;6.370;2023-01-10T04:35:49;5.30;99.90
52509;DHT22;38420;53.150;6.370;2023-01-10T04:38:15;5.90;99.90
52509;DHT22;38420;53.150;6.370;2023-01-10T04:40:41;5.90;99.90
52509;DHT22;38420;53.150;6.370;2023-01-10T04:43:09;5.30;99.90
52509;DHT22;38420;53.150;6.370;2023-01-10T04:45:34;5.30;99.90
52509;DHT22;38420;53.150;6.370;2023-01-10T04:48:00;5.30;99.90
52509;DHT22;38420;53.150;6.370;2023-01-10T04:50:26;5.30;99.90
52509;DHT22;38420;53.150;6.370;2023-01-10T04:52:52;5.40;99.90
52509;DHT22;38420;53.150;6.370;2023-01-10T04:55:18;5.80;99.90
52509;DHT22;38420;53.150;6.370;2023-01-10T04:57:43;6.10;99.90
52509;DHT22;38420;53.150;6.370;2023-01-10T05:00:10;6.00;99.90
52509;DHT22;38420;53.150;6.370;2023-01-10T05:02:36;5.40;99.90
52509;DHT22;38420;53.150;6.370;2023-01-10T05:05:09;5.90;99.90
52509;DHT22;38420;53.150;6.370;2023-01-10T05:07:35;5.80;99.90
52509;DHT22;38420;53.150;6.370;2023-01-10T05:10:02;6.00;99.90
52509;DHT22;38420;53.150;6.370;2023-01-10T05:12:28;6.40;99.90
52509;DHT22;38420;53.150;6.370;2023-01-10T05:14:53;6.20;99.90
52509;DHT22;38420;53.150;6.370;2023-01-10T05:17:19;5.40;99.90
52509;DHT22;38420;53.150;6.370;2023-01-10T05:19:44;5.90;99.90
52509;DHT22;38420;53.150;6.370;2023-01-10T05:22:10;6.30;99.90
52509;DHT22;38420;53.150;6.370;2023-01-10T05:24:36;5.40;99.90
52509;DHT22;38420;53.150;6.370;2023-01-10T05:27:02;6.30;99.90
52509;DHT22;38420;53.150;6.370;2023-01-10T05:29:27;5.50;99.90
52509;DHT22;38420;53.150;6.370;2023-01-10T05:31:53;5.50;99.90
52509;DHT22;38420;53.150;6.370;2023-01-10T05:34:19;5.50;99.90
52509;DHT22;38420;53.150;6.370;2023-01-10T05:36:45;5.50;99.90
52509;DHT22;38420;53.150;6.370;2023-01-10T05:39:10;5.70;99.90
52509;DHT22;38420;53.150;6.370;2023-01-10T05:41:37;6.30;99.90
52509;DHT22;38420;53.150;6.370;2023-01-10T05:44:03;6.40;99.90
52509;DHT22;38420;53.150;6.370;2023-01-10T05:46:28;5.60;99.90
52509;DHT22;38420;53.150;6.370;2023-01-10T05:48:54;6.40;99.90
52509;DHT22;38420;53.150;6.370;2023-01-10T05:51:20;6.20;99.90
52509;DHT22;38420;53.150;6.370;2023-01-10T05:53:45;5.50;99.90
52509;DHT22;38420;53.150;6.370;2023-01-10T05:56:11;6.30;99.90
52509;DHT22;38420;53.150;6.370;2023-01-10T05:58:36;6.30;99.90
52509;DHT22;38420;53.150;6.370;2023-01-10T06:01:02;6.40;99.90
52509;DHT22;38420;53.150;6.370;2023-01-10T06:03:28;5.50;99.90
52509;DHT22;38420;53.150;6.370;2023-01-10T06:05:54;6.20;99.90
52509;DHT22;38420;53.150;6.370;2023-01-10T06:08:20;6.40;99.90
52509;DHT22;38420;53.150;6.370;2023-01-10T06:10:45;6.20;99.90
52509;DHT22;38420;53.150;6.370;2023-01-10T06:13:11;6.60;99.90
52509;DHT22;38420;53.150;6.370;2023-01-10T06:15:37;5.80;99.90
52509;DHT22;38420;53.150;6.370;2023-01-10T06:18:03;5.80;99.90
52509;DHT22;38420;53.150;6.370;2023-01-10T06:20:29;6.50;99.90
52509;DHT22;38420;53.150;6.370;2023-01-10T06:22:55;6.30;99.90
52509;DHT22;38420;53.150;6.370;2023-01-10T06:25:21;6.20;99.90
52509;DHT22;38420;53.150;6.370;2023-01-10T06:27:46;5.70;99.90
52509;DHT22;38420;53.150;6.370;2023-01-10T06:30:13;5.60;99.90
52509;DHT22;38420;53.150;6.370;2023-01-10T06:32:39;5.70;99.90
52509;DHT22;38420;53.150;6.370;2023-01-10T06:35:05;5.50;99.90
52509;DHT22;38420;53.150;6.370;2023-01-10T06:37:31;6.10;99.90
52509;DHT22;38420;53.150;6.370;2023-01-10T06:39:57;6.10;99.90
52509;DHT22;38420;53.150;6.370;2023-01-10T06:42:23;5.20;99.90
52509;DHT22;38420;53.150;6.370;2023-01-10T06:44:48;5.90;99.90
52509;DHT22;38420;53.150;6.370;2023-01-10T06:47:14;5.60;99.90
52509;DHT22;38420;53.150;6.370;2023-01-10T06:49:39;5.10;99.90
52509;DHT22;38420;53.150;6.370;2023-01-10T06:52:05;5.90;99.90
52509;DHT22;38420;53.150;6.370;2023-01-10T06:54:31;5.50;99.90
52509;DHT22;38420;53.150;6.370;2023-01-10T06:56:56;5.10;99.90
52509;DHT22;38420;53.150;6.370;2023-01-10T06:59:22;5.70;99.90
52509;DHT22;38420;53.150;6.370;2023-01-10T07:01:47;5.60;99.90
52509;DHT22;38420;53.150;6.370;2023-01-10T07:04:13;5.60;99.90
52509;DHT22;38420;53.150;6.370;2023-01-10T07:06:39;4.80;99.90
52509;DHT22;38420;53.150;6.370;2023-01-10T07:09:06;5.20;99.90
52509;DHT22;38420;53.150;6.370;2023-01-10T07:11:33;5.60;99.90
52509;DHT22;38420;53.150;6.370;2023-01-10T07:14:00;5.90;99.90
52509;DHT22;38420;53.150;6.370;2023-01-10T07:16:26;5.20;99.90
52509;DHT22;38420;53.150;6.370;2023-01-10T07:18:52;6.00;99.90
52509;DHT22;38420;53.150;6.370;2023-01-10T07:21:18;6.10;99.90
52509;DHT22;38420;53.150;6.370;2023-01-10T07:23:48;6.00;99.90
52509;DHT22;38420;53.150;6.370;2023-01-10T07:26:15;5.30;99.90
52509;DHT22;38420;53.150;6.370;2023-01-10T07:28:47;5.20;99.90
52509;DHT22;38420;53.150;6.370;2023-01-10T07:31:16;5.40;99.90
52509;DHT22;38420;53.150;6.370;2023-01-10T07:33:41;6.00;99.90
52509;DHT22;38420;53.150;6.370;2023-01-10T07:36:07;5.70;99.90
52509;DHT22;38420;53.150;6.370;2023-01-10T07:38:33;5.50;99.90
52509;DHT22;38420;53.150;6.370;2023-01-10T07:41:01;5.70;99.90
52509;DHT22;38420;53.150;6.370;2023-01-10T07:43:27;5.40;99.90
52509;DHT22;38420;53.150;6.370;2023-01-10T07:45:52;5.50;99.90
52509;DHT22;38420;53.150;6.370;2023-01-10T07:48:18;6.20;99.90
52509;DHT22;38420;53.150;6.370;2023-01-10T07:50:43;5.20;99.90
52509;DHT22;38420;53.150;6.370;2023-01-10T07:53:09;5.30;99.90
52509;DHT22;38420;53.150;6.370;2023-01-10T07:55:36;5.50;99.90
52509;DHT22;38420;53.150;6.370;2023-01-10T07:58:04;5.20;99.90
52509;DHT22;38420;53.150;6.370;2023-01-10T08:00:33;5.30;99.90
52509;DHT22;38420;53.150;6.370;2023-01-10T08:02:58;6.10;99.90
52509;DHT22;38420;53.150;6.370;2023-01-10T08:05:24;5.40;99.90
52509;DHT22;38420;53.150;6.370;2023-01-10T08:07:50;5.40;99.90
52509;DHT22;38420;53.150;6.370;2023-01-10T08:10:16;5.40;99.90
52509;DHT22;38420;53.150;6.370;2023-01-10T08:12:42;5.50;99.90
52509;DHT22;38420;53.150;6.370;2023-01-10T08:15:08;5.20;99.90
52509;DHT22;38420;53.150;6.370;2023-01-10T08:17:35;5.90;99.90
52509;DHT22;38420;53.150;6.370;2023-01-10T08:20:01;5.50;99.90
52509;DHT22;38420;53.150;6.370;2023-01-10T08:22:27;5.80;99.90
52509;DHT22;38420;53.150;6.370;2023-01-10T08:24:53;5.20;99.90
52509;DHT22;38420;53.150;6.370;2023-01-10T08:27:18;6.10;99.90
52509;DHT22;38420;53.150;6.370;2023-01-10T08:29:44;5.80;99.90
52509;DHT22;38420;53.150;6.370;2023-01-10T08:32:10;6.00;99.90
52509;DHT22;38420;53.150;6.370;2023-01-10T08:34:36;5.00;99.90
52509;DHT22;38420;53.150;6.370;2023-01-10T08:37:01;6.10;99.90
52509;DHT22;38420;53.150;6.370;2023-01-10T08:39:28;5.10;99.90
52509;DHT22;38420;53.150;6.370;2023-01-10T08:41:55;5.10;99.90
52509;DHT22;38420;53.150;6.370;2023-01-10T08:44:21;5.50;99.90
52509;DHT22;38420;53.150;6.370;2023-01-10T08:46:47;5.00;99.90
52509;DHT22;38420;53.150;6.370;2023-01-10T08:49:13;5.00;99.90
52509;DHT22;38420;53.150;6.370;2023-01-10T08:51:38;5.40;99.90
52509;DHT22;38420;53.150;6.370;2023-01-10T08:54:04;5.00;99.90
52509;DHT22;38420;53.150;6.370;2023-01-10T08:56:30;5.60;99.90
52509;DHT22;38420;53.150;6.370;2023-01-10T08:58:55;5.40;99.90
52509;DHT22;38420;53.150;6.370;2023-01-10T09:01:21;5.00;99.90
52509;DHT22;38420;53.150;6.370;2023-01-10T09:03:47;5.90;99.90
52509;DHT22;38420;53.150;6.370;2023-01-10T09:06:12;6.00;99.90
52509;DHT22;38420;53.150;6.370;2023-01-10T09:08:38;5.40;99.90
52509;DHT22;38420;53.150;6.370;2023-01-10T09:11:04;5.20;99.90
52509;DHT22;38420;53.150;6.370;2023-01-10T09:13:30;6.10;99.90
52509;DHT22;38420;53.150;6.370;2023-01-10T09:15:57;6.10;99.90
52509;DHT22;38420;53.150;6.370;2023-01-10T09:18:22;5.50;99.90
52509;DHT22;38420;53.150;6.370;2023-01-10T09:20:49;6.20;99.90
52509;DHT22;38420;53.150;6.370;2023-01-10T09:23:17;5.80;99.90
52509;DHT22;38420;53.150;6.370;2023-01-10T09:25:49;5.60;99.90
52509;DHT22;38420;53.150;6.370;2023-01-10T09:28:16;6.30;99.90
52509;DHT22;38420;53.150;6.370;2023-01-10T09:30:42;6.10;99.90
52509;DHT22;38420;53.150;6.370;2023-01-10T09:33:08;6.20;99.90
52509;DHT22;38420;53.150;6.370;2023-01-10T09:35:36;5.60;99.90
52509;DHT22;38420;53.150;6.370;2023-01-10T09:38:03;5.80;99.90
52509;DHT22;38420;53.150;6.370;2023-01-10T09:46:05;6.50;99.90
52509;DHT22;38420;53.150;6.370;2023-01-10T09:51:28;6.70;99.90
52509;DHT22;38420;53.150;6.370;2023-01-10T09:53:58;6.70;99.90
52509;DHT22;38420;53.150;6.370;2023-01-10T09:56:25;6.50;99.90
52509;DHT22;38420;53.150;6.370;2023-01-10T09:58:52;6.70;99.90
52509;DHT22;38420;53.150;6.370;2023-01-10T10:01:22;6.00;99.90
52509;DHT22;38420;53.150;6.370;2023-01-10T10:06:27;6.80;99.90
52509;DHT22;38420;53.150;6.370;2023-01-10T10:08:53;6.50;99.90
52509;DHT22;38420;53.150;6.370;2023-01-10T10:14:15;6.70;99.90
52509;DHT22;38420;53.150;6.370;2023-01-10T10:17:05;6.90;99.90
52509;DHT22;38420;53.150;6.370;2023-01-10T10:19:59;6.20;99.90
52509;DHT22;38420;53.150;6.370;2023-01-10T10:30:44;6.50;99.90
52509;DHT22;38420;53.150;6.370;2023-01-10T10:36:27;6.30;99.90
52509;DHT22;38420;53.150;6.370;2023-01-10T10:38:57;6.50;99.90
52509;DHT22;38420;53.150;6.370;2023-01-10T10:41:34;6.60;99.90
52509;DHT22;38420;53.150;6.370;2023-01-10T10:44:50;7.00;99.90
52509;DHT22;38420;53.150;6.370;2023-01-10T10:46:51;6.70;99.90
52509;DHT22;38420;53.150;6.370;2023-01-10T10:49:29;6.80;99.90
52509;DHT22;38420;53.150;6.370;2023-01-10T10:51:59;6.90;99.90
52509;DHT22;38420;53.150;6.370;2023-01-10T10:54:27;6.50;99.90
52509;DHT22;38420;53.150;6.370;2023-01-10T10:56:53;6.80;99.90
52509;DHT22;38420;53.150;6.370;2023-01-10T10:59:20;7.00;99.90
52509;DHT22;38420;53.150;6.370;2023-01-10T11:01:46;7.00;99.90
52509;DHT22;38420;53.150;6.370;2023-01-10T11:04:18;6.60;99.90
52509;DHT22;38420;53.150;6.370;2023-01-10T11:06:45;7.10;99.90
52509;DHT22;38420;53.150;6.370;2023-01-10T11:09:20;6.90;99.90
52509;DHT22;38420;53.150;6.370;2023-01-10T11:11:59;7.20;99.90
52509;DHT22;38420;53.150;6.370;2023-01-10T11:19:54;6.60;99.90
52509;DHT22;38420;53.150;6.370;2023-01-10T11:22:20;7.20;99.90
52509;DHT22;38420;53.150;6.370;2023-01-10T11:24:55;7.10;99.90
52509;DHT22;38420;53.150;6.370;2023-01-10T11:27:25;6.80;99.90
52509;DHT22;38420;53.150;6.370;2023-01-10T11:30:00;7.20;99.90
52509;DHT22;38420;53.150;6.370;2023-01-10T11:32:53;7.10;99.90
52509;DHT22;38420;53.150;6.370;2023-01-10T11:35:25;6.70;99.90
52509;DHT22;38420;53.150;6.370;2023-01-10T11:38:18;7.00;99.90
52509;DHT22;38420;53.150;6.370;2023-01-10T11:40:57;7.00;99.90
52509;DHT22;38420;53.150;6.370;2023-01-10T11:43:36;7.20;99.90
52509;DHT22;38420;53.150;6.370;2023-01-10T11:48:59;6.70;99.90
52509;DHT22;38420;53.150;6.370;2023-01-10T11:51:28;6.60;99.90
52509;DHT22;38420;53.150;6.370;2023-01-10T11:56:54;6.60;99.90
52509;DHT22;38420;53.150;6.370;2023-01-10T11:59:20;6.70;99.90
52509;DHT22;38420;53.150;6.370;2023-01-10T12:01:59;6.60;99.90
52509;DHT22;38420;53.150;6.370;2023-01-10T12:04:33;6.60;99.90
52509;DHT22;38420;53.150;6.370;2023-01-10T12:07:03;6.90;99.90
52509;DHT22;38420;53.150;6.370;2023-01-10T12:09:38;6.70;99.90
52509;DHT22;38420;53.150;6.370;2023-01-10T12:12:27;6.60;99.90
52509;DHT22;38420;53.150;6.370;2023-01-10T12:14:57;7.50;99.90
52509;DHT22;38420;53.150;6.370;2023-01-10T12:17:32;6.40;99.90
52509;DHT22;38420;53.150;6.370;2023-01-10T12:20:00;6.80;99.90
52509;DHT22;38420;53.150;6.370;2023-01-10T12:22:42;6.90;99.90
52509;DHT22;38420;53.150;6.370;2023-01-10T12:25:32;6.80;99.90
52509;DHT22;38420;53.150;6.370;2023-01-10T12:27:59;6.70;99.90
52509;DHT22;38420;53.150;6.370;2023-01-10T12:30:44;6.50;99.90
52509;DHT22;38420;53.150;6.370;2023-01-10T12:33:22;6.80;99.90
52509;DHT22;38420;53.150;6.370;2023-01-10T12:38:33;6.80;99.90
52509;DHT22;38420;53.150;6.370;2023-01-10T12:41:24;6.40;99.90
52509;DHT22;38420;53.150;6.370;2023-01-10T12:44:18;6.40;99.90
52509;DHT22;38420;53.150;6.370;2023-01-10T12:46:56;6.80;99.90
52509;DHT22;38420;53.150;6.370;2023-01-10T12:49:28;6.40;99.90
52509;DHT22;38420;53.150;6.370;2023-01-10T12:52:00;6.40;99.90
52509;DHT22;38420;53.150;6.370;2023-01-10T12:54:28;6.50;99.90
52509;DHT22;38420;53.150;6.370;2023-01-10T12:56:57;6.80;99.90
52509;DHT22;38420;53.150;6.370;2023-01-10T12:59:31;6.50;99.90
52509;DHT22;38420;53.150;6.370;2023-01-10T13:02:06;6.40;99.90
52509;DHT22;38420;53.150;6.370;2023-01-10T13:04:36;5.70;99.90
52509;DHT22;38420;53.150;6.370;2023-01-10T13:07:03;6.80;99.90
52509;DHT22;38420;53.150;6.370;2023-01-10T13:09:30;6.70;99.90
52509;DHT22;38420;53.150;6.370;2023-01-10T13:12:06;7.90;99.90
52509;DHT22;38420;53.150;6.370;2023-01-10T13:22:46;6.50;99.90
52509;DHT22;38420;53.150;6.370;2023-01-10T13:25:32;6.60;99.90
52509;DHT22;38420;53.150;6.370;2023-01-10T13:28:06;6.70;99.90
52509;DHT22;38420;53.150;6.370;2023-01-10T13:30:38;6.40;99.90
52509;DHT22;38420;53.150;6.370;2023-01-10T13:36:29;6.40;99.90
52509;DHT22;38420;53.150;6.370;2023-01-10T13:38:57;6.60;99.90
52509;DHT22;38420;53.150;6.370;2023-01-10T14:01:24;6.30;99.90
52509;DHT22;38420;53.150;6.370;2023-01-10T14:04:23;6.40;99.90
52509;DHT22;38420;53.150;6.370;2023-01-10T14:07:01;6.30;99.90
52509;DHT22;38420;53.150;6.370;2023-01-10T14:09:40;6.30;99.90
52509;DHT22;38420;53.150;6.370;2023-01-10T14:12:16;6.50;99.90
52509;DHT22;38420;53.150;6.370;2023-01-10T14:14:54;6.20;99.90
52509;DHT22;38420;53.150;6.370;2023-01-10T14:17:29;6.60;99.90
52509;DHT22;38420;53.150;6.370;2023-01-10T14:22:29;6.50;99.90
52509;DHT22;38420;53.150;6.370;2023-01-10T14:24:57;6.40;99.90
52509;DHT22;38420;53.150;6.370;2023-01-10T14:27:23;6.50;99.90
52509;DHT22;38420;53.150;6.370;2023-01-10T14:29:56;6.50;99.90
52509;DHT22;38420;53.150;6.370;2023-01-10T14:32:34;6.50;99.90
52509;DHT22;38420;53.150;6.370;2023-01-10T14:35:02;6.50;99.90
52509;DHT22;38420;53.150;6.370;2023-01-10T14:40:09;6.50;99.90
52509;DHT22;38420;53.150;6.370;2023-01-10T14:42:37;6.40;99.90
52509;DHT22;38420;53.150;6.370;2023-01-10T14:45:19;6.40;99.90
52509;DHT22;38420;53.150;6.370;2023-01-10T14:47:48;6.30;99.90
52509;DHT22;38420;53.150;6.370;2023-01-10T14:50:28;6.40;99.90
52509;DHT22;38420;53.150;6.370;2023-01-10T14:52:57;6.50;99.90
52509;DHT22;38420;53.150;6.370;2023-01-10T14:55:23;6.30;99.90
52509;DHT22;38420;53.150;6.370;2023-01-10T14:57:56;6.50;99.90
52509;DHT22;38420;53.150;6.370;2023-01-10T15:00:28;6.30;99.90
52509;DHT22;38420;53.150;6.370;2023-01-10T15:02:54;6.50;99.90
52509;DHT22;38420;53.150;6.370;2023-01-10T15:05:22;6.50;99.90
52509;DHT22;38420;53.150;6.370;2023-01-10T15:07:55;6.40;99.90
52509;DHT22;38420;53.150;6.370;2023-01-10T15:10:40;6.30;99.90
52509;DHT22;38420;53.150;6.370;2023-01-10T15:13:07;6.30;99.90
52509;DHT22;38420;53.150;6.370;2023-01-10T15:15:36;6.40;99.90
52509;DHT22;38420;53.150;6.370;2023-01-10T15:18:06;6.40;99.90
52509;DHT22;38420;53.150;6.370;2023-01-10T15:20:38;6.30;99.90
52509;DHT22;38420;53.150;6.370;2023-01-10T15:23:04;6.30;99.90
52509;DHT22;38420;53.150;6.370;2023-01-10T15:25:36;6.50;99.90
52509;DHT22;38420;53.150;6.370;2023-01-10T15:28:04;6.40;99.90
52509;DHT22;38420;53.150;6.370;2023-01-10T15:30:37;6.30;99.90
52509;DHT22;38420;53.150;6.370;2023-01-10T15:33:05;6.40;99.90
52509;DHT22;38420;53.150;6.370;2023-01-10T15:35:33;6.50;99.90
52509;DHT22;38420;53.150;6.370;2023-01-10T15:38:04;6.50;99.90
52509;DHT22;38420;53.150;6.370;2023-01-10T15:40:34;6.60;99.90
52509;DHT22;38420;53.150;6.370;2023-01-10T15:45:42;6.60;99.90
52509;DHT22;38420;53.150;6.370;2023-01-10T15:51:46;6.50;99.90
52509;DHT22;38420;53.150;6.370;2023-01-10T15:54:05;6.40;99.90
52509;DHT22;38420;53.150;6.370;2023-01-10T15:56:35;6.50;99.90
52509;DHT22;38420;53.150;6.370;2023-01-10T15:59:04;6.60;99.90
52509;DHT22;38420;53.150;6.370;2023-01-10T16:01:31;6.40;99.90
52509;DHT22;38420;53.150;6.370;2023-01-10T16:04:01;6.40;99.90
52509;DHT22;38420;53.150;6.370;2023-01-10T16:06:34;6.30;99.90
52509;DHT22;38420;53.150;6.370;2023-01-10T16:09:07;6.50;99.90
52509;DHT22;38420;53.150;6.370;2023-01-10T16:11:45;6.50;99.90
52509;DHT22;38420;53.150;6.370;2023-01-10T16:14:30;6.50;99.90
52509;DHT22;38420;53.150;6.370;2023-01-10T16:16:56;6.10;99.90
52509;DHT22;38420;53.150;6.370;2023-01-10T16:19:21;6.20;99.90
52509;DHT22;38420;53.150;6.370;2023-01-10T16:21:50;6.50;99.90
52509;DHT22;38420;53.150;6.370;2023-01-10T16:24:23;6.20;99.90
52509;DHT22;38420;53.150;6.370;2023-01-10T16:26:50;6.00;99.90
52509;DHT22;38420;53.150;6.370;2023-01-10T16:29:17;6.10;99.90
52509;DHT22;38420;53.150;6.370;2023-01-10T16:31:45;6.30;99.90
52509;DHT22;38420;53.150;6.370;2023-01-10T16:34:11;6.40;99.90
52509;DHT22;38420;53.150;6.370;2023-01-10T16:36:36;5.90;99.90
52509;DHT22;38420;53.150;6.370;2023-01-10T16:39:22;6.20;99.90
52509;DHT22;38420;53.150;6.370;2023-01-10T16:41:48;5.80;99.90
52509;DHT22;38420;53.150;6.370;2023-01-10T16:44:33;6.20;99.90
52509;DHT22;38420;53.150;6.370;2023-01-10T16:46:59;5.80;99.90
52509;DHT22;38420;53.150;6.370;2023-01-10T16:49:25;6.10;99.90
52509;DHT22;38420;53.150;6.370;2023-01-10T16:51:52;6.30;99.90
52509;DHT22;38420;53.150;6.370;2023-01-10T16:54:21;5.90;99.90
52509;DHT22;38420;53.150;6.370;2023-01-10T16:56:49;6.30;99.90
52509;DHT22;38420;53.150;6.370;2023-01-10T16:59:15;6.30;99.90
52509;DHT22;38420;53.150;6.370;2023-01-10T17:02:00;5.60;99.90
52509;DHT22;38420;53.150;6.370;2023-01-10T17:04:27;5.80;99.90
52509;DHT22;38420;53.150;6.370;2023-01-10T17:06:55;6.30;99.90
52509;DHT22;38420;53.150;6.370;2023-01-10T17:09:29;6.00;99.90
52509;DHT22;38420;53.150;6.370;2023-01-10T17:11:57;6.30;99.90
52509;DHT22;38420;53.150;6.370;2023-01-10T17:14:28;6.10;99.90
52509;DHT22;38420;53.150;6.370;2023-01-10T17:16:53;5.80;99.90
52509;DHT22;38420;53.150;6.370;2023-01-10T17:19:19;6.10;99.90
52509;DHT22;38420;53.150;6.370;2023-01-10T17:21:45;6.20;99.90
52509;DHT22;38420;53.150;6.370;2023-01-10T17:24:11;6.10;99.90
52509;DHT22;38420;53.150;6.370;2023-01-10T17:26:37;6.30;99.90
52509;DHT22;38420;53.150;6.370;2023-01-10T17:29:02;6.30;99.90
52509;DHT22;38420;53.150;6.370;2023-01-10T17:31:28;6.40;99.90
52509;DHT22;38420;53.150;6.370;2023-01-10T17:33:53;6.00;99.90
52509;DHT22;38420;53.150;6.370;2023-01-10T17:36:19;5.60;99.90
52509;DHT22;38420;53.150;6.370;2023-01-10T17:38:47;6.00;99.90
52509;DHT22;38420;53.150;6.370;2023-01-10T17:41:12;6.00;99.90
52509;DHT22;38420;53.150;6.370;2023-01-10T17:43:38;5.70;99.90
52509;DHT22;38420;53.150;6.370;2023-01-10T17:46:04;5.70;99.90
52509;DHT22;38420;53.150;6.370;2023-01-10T17:48:30;6.40;99.90
52509;DHT22;38420;53.150;6.370;2023-01-10T17:50:58;6.10;99.90
52509;DHT22;38420;53.150;6.370;2023-01-10T17:53:24;5.90;99.90